Time;durP1;ratioP1;P1;durP2;ratioP2;P2;SDS_P1;SDS_P2;PMS_P1;PMS_P2;Temp;Humidity;BMP_temperature;BMP_pressure;BME280_temperature;BME280_humidity;BME280_pressure;Samples;Min_cycle;Max_cycle;Signal;HPM_P1;HPM_P2
2022/01/11 00:00:10;;;;;;;;;;;0.00;99.90;;;;;;5094485;28;19999;-73
2022/01/11 00:02:40;;;;;;;;;;;0.00;99.90;;;;;;5094339;28;20444;-73
2022/01/11 00:05:05;;;;;;;;;;;0.00;99.90;;;;;;5093708;28;19908;-73
2022/01/11 00:07:33;;;;;;;;;;;0.00;99.90;;;;;;5091918;28;19908;-73
2022/01/11 00:10:00;;;;;;;;;;;0.00;99.90;;;;;;5090658;28;19943;-75
2022/01/11 00:12:26;;;;;;;;;;;-0.10;99.90;;;;;;5090959;28;20320;-73
2022/01/11 00:14:51;;;;;;;;;;;-0.10;99.90;;;;;;5090035;28;19923;-73
2022/01/11 00:17:17;;;;;;;;;;;-0.10;99.90;;;;;;5090563;28;19998;-74
2022/01/11 00:19:45;;;;;;;;;;;-0.10;99.90;;;;;;5090511;28;19908;-73
2022/01/11 00:22:17;;;;;;;;;;;-0.10;99.90;;;;;;5086570;28;20262;-73
2022/01/11 00:24:42;;;;;;;;;;;-0.10;99.90;;;;;;5072946;28;19933;-73
2022/01/11 00:27:09;;;;;;;;;;;-0.10;99.90;;;;;;5073515;28;20370;-73
2022/01/11 00:29:36;;;;;;;;;;;-0.10;99.90;;;;;;5073547;28;19908;-73
2022/01/11 00:32:08;;;;;;;;;;;-0.20;99.90;;;;;;5073812;28;19931;-73
2022/01/11 00:35:10;;;;;;;;;;;-0.10;99.90;;;;;;5072876;28;19916;-74
2022/01/11 00:37:26;;;;;;;;;;;-0.20;99.90;;;;;;5067915;28;19912;-73
2022/01/11 00:39:52;;;;;;;;;;;-0.20;99.90;;;;;;5073324;28;20362;-73
2022/01/11 00:42:22;;;;;;;;;;;-0.30;99.90;;;;;;5073343;28;20005;-74
2022/01/11 00:44:48;;;;;;;;;;;-0.30;99.90;;;;;;5072765;28;19915;-74
2022/01/11 00:47:13;;;;;;;;;;;-0.30;99.90;;;;;;5073113;28;19912;-73
2022/01/11 00:49:40;;;;;;;;;;;-0.30;99.90;;;;;;5073183;28;19951;-73
2022/01/11 00:52:06;;;;;;;;;;;-0.40;99.90;;;;;;5078605;28;19909;-74
2022/01/11 00:54:31;;;;;;;;;;;-0.40;99.90;;;;;;5072452;28;19919;-73
2022/01/11 00:56:57;;;;;;;;;;;-0.50;99.90;;;;;;5072980;28;20209;-73
2022/01/11 00:59:22;;;;;;;;;;;-0.50;99.90;;;;;;5073330;28;20394;-73
2022/01/11 01:01:48;;;;;;;;;;;-0.50;99.90;;;;;;5072829;28;19962;-74
2022/01/11 01:04:13;;;;;;;;;;;-0.50;99.90;;;;;;5054679;28;19928;-73
2022/01/11 01:06:39;;;;;;;;;;;-0.60;99.90;;;;;;5072541;28;20282;-73
2022/01/11 01:09:05;;;;;;;;;;;-0.60;99.90;;;;;;5072763;28;19948;-73
2022/01/11 01:11:31;;;;;;;;;;;-0.60;99.90;;;;;;5072546;28;19916;-73
2022/01/11 01:13:56;;;;;;;;;;;-0.60;99.90;;;;;;5072084;28;20361;-75
2022/01/11 01:16:22;;;;;;;;;;;-0.60;99.90;;;;;;5072329;28;19912;-73
2022/01/11 01:18:47;;;;;;;;;;;-0.60;99.90;;;;;;5072629;28;20289;-72
2022/01/11 01:21:13;;;;;;;;;;;-0.60;99.90;;;;;;5075131;28;19954;-73
2022/01/11 01:23:38;;;;;;;;;;;-0.60;99.90;;;;;;5075200;28;20003;-73
2022/01/11 01:26:04;;;;;;;;;;;-0.60;99.90;;;;;;5074027;28;20177;-73
2022/01/11 01:28:29;;;;;;;;;;;-0.50;99.90;;;;;;5076364;28;19909;-73
2022/01/11 01:31:00;;;;;;;;;;;-0.40;99.90;;;;;;5072349;28;19909;-73
2022/01/11 01:33:25;;;;;;;;;;;-0.50;99.90;;;;;;5071871;28;20165;-73
2022/01/11 01:35:56;;;;;;;;;;;-0.60;99.90;;;;;;5071930;28;20365;-74
2022/01/11 01:38:24;;;;;;;;;;;-0.60;99.90;;;;;;5072154;28;19999;-73
2022/01/11 01:40:51;;;;;;;;;;;-0.60;99.90;;;;;;5072236;28;19916;-73
2022/01/11 01:43:16;;;;;;;;;;;-0.70;99.90;;;;;;5053643;28;19915;-72
2022/01/11 01:45:45;;;;;;;;;;;-0.70;99.90;;;;;;5071959;28;19908;-72
2022/01/11 01:48:12;;;;;;;;;;;-0.60;99.90;;;;;;5071669;28;19908;-74
2022/01/11 01:50:38;;;;;;;;;;;-0.60;99.90;;;;;;5071820;28;19919;-72
2022/01/11 01:53:05;;;;;;;;;;;-0.50;99.90;;;;;;5071464;28;19913;-73
2022/01/11 01:55:30;;;;;;;;;;;-0.40;99.90;;;;;;5053894;28;19957;-72
2022/01/11 01:57:56;;;;;;;;;;;-0.40;99.90;;;;;;5079060;28;20386;-73
2022/01/11 02:00:23;;;;;;;;;;;-0.40;99.90;;;;;;5072784;28;20369;-74
2022/01/11 02:02:49;;;;;;;;;;;-0.30;99.90;;;;;;5072714;28;19908;-73
2022/01/11 02:05:15;;;;;;;;;;;-0.30;99.90;;;;;;5073273;28;19909;-74
2022/01/11 02:07:40;;;;;;;;;;;-0.30;99.90;;;;;;5072875;28;19909;-74
2022/01/11 02:10:07;;;;;;;;;;;-0.20;99.90;;;;;;5072940;28;19946;-73
2022/01/11 02:12:32;;;;;;;;;;;-0.20;99.90;;;;;;5072685;28;20281;-74
2022/01/11 02:14:58;;;;;;;;;;;-0.20;99.90;;;;;;5072055;28;20015;-74
2022/01/11 02:17:27;;;;;;;;;;;-0.20;99.90;;;;;;5072719;28;19919;-74
2022/01/11 02:19:56;;;;;;;;;;;-0.20;99.90;;;;;;5073064;28;19962;-74
2022/01/11 02:22:25;;;;;;;;;;;-0.20;99.90;;;;;;5072348;28;19915;-74
2022/01/11 02:24:51;;;;;;;;;;;-0.30;99.90;;;;;;5072146;28;19927;-73
2022/01/11 02:27:16;;;;;;;;;;;-0.30;99.90;;;;;;5078664;28;20002;-72
2022/01/11 02:29:42;;;;;;;;;;;-0.30;99.90;;;;;;5072217;28;19915;-73
2022/01/11 02:32:08;;;;;;;;;;;-0.30;99.90;;;;;;5072518;28;19909;-74
2022/01/11 02:34:33;;;;;;;;;;;-0.30;99.90;;;;;;5071869;28;19923;-74
2022/01/11 02:36:59;;;;;;;;;;;-0.30;99.90;;;;;;5054481;28;20062;-74
2022/01/11 02:39:24;;;;;;;;;;;-0.20;99.90;;;;;;5072378;28;19912;-73
2022/01/11 02:41:54;;;;;;;;;;;-0.20;99.90;;;;;;5072463;28;19915;-74
2022/01/11 02:44:20;;;;;;;;;;;-0.30;99.90;;;;;;5053839;28;20369;-74
2022/01/11 02:46:45;;;;;;;;;;;-0.30;99.90;;;;;;5054287;28;19915;-73
2022/01/11 02:49:11;;;;;;;;;;;-0.40;99.90;;;;;;5054488;28;20015;-73
2022/01/11 02:51:36;;;;;;;;;;;-0.40;99.90;;;;;;5072600;28;19909;-73
2022/01/11 02:54:04;;;;;;;;;;;-0.40;99.90;;;;;;5071918;28;20015;-74
2022/01/11 02:56:30;;;;;;;;;;;-0.40;99.90;;;;;;5078300;28;19912;-73
2022/01/11 02:58:56;;;;;;;;;;;-0.40;99.90;;;;;;5073231;28;19909;-73
2022/01/11 03:01:21;;;;;;;;;;;-0.50;99.90;;;;;;5059526;28;19915;-74
2022/01/11 03:03:47;;;;;;;;;;;-0.50;99.90;;;;;;5076161;28;19908;-74
2022/01/11 03:06:13;;;;;;;;;;;-0.50;99.90;;;;;;5076998;28;19961;-74
2022/01/11 03:08:43;;;;;;;;;;;-0.60;99.90;;;;;;5076320;28;19916;-74
2022/01/11 03:11:12;;;;;;;;;;;-0.60;99.90;;;;;;5076692;28;20292;-74
2022/01/11 03:13:39;;;;;;;;;;;-0.60;99.90;;;;;;5075974;28;19916;-73
2022/01/11 03:16:05;;;;;;;;;;;-0.60;99.90;;;;;;5075963;28;19927;-74
2022/01/11 03:18:31;;;;;;;;;;;-0.60;99.90;;;;;;5075280;28;20347;-74
2022/01/11 03:20:56;;;;;;;;;;;-0.60;99.90;;;;;;5057252;28;19962;-74
2022/01/11 03:23:22;;;;;;;;;;;-0.60;99.90;;;;;;5074754;28;19915;-74
2022/01/11 03:25:50;;;;;;;;;;;-0.60;99.90;;;;;;5075422;28;19909;-74
2022/01/11 03:28:16;;;;;;;;;;;-0.60;99.90;;;;;;5074841;28;19912;-73
2022/01/11 03:30:41;;;;;;;;;;;-0.60;99.90;;;;;;5074867;28;19909;-74
2022/01/11 03:33:08;;;;;;;;;;;-0.60;99.90;;;;;;5074709;28;19916;-74
2022/01/11 03:35:34;;;;;;;;;;;-0.60;99.90;;;;;;5074773;28;19920;-74
2022/01/11 03:38:00;;;;;;;;;;;-0.60;99.90;;;;;;5074845;28;19919;-74
2022/01/11 03:40:26;;;;;;;;;;;-0.60;99.90;;;;;;5074823;28;20199;-74
2022/01/11 03:42:51;;;;;;;;;;;-0.60;99.90;;;;;;5074371;28;19915;-74
2022/01/11 03:45:17;;;;;;;;;;;-0.60;99.90;;;;;;5074751;28;19908;-74
2022/01/11 03:47:43;;;;;;;;;;;-0.50;99.90;;;;;;5074922;28;19916;-74
2022/01/11 03:50:10;;;;;;;;;;;-0.50;99.90;;;;;;5074680;28;19908;-74
2022/01/11 03:52:36;;;;;;;;;;;-0.50;99.90;;;;;;5056475;28;20426;-74
2022/01/11 03:55:06;;;;;;;;;;;-0.40;99.90;;;;;;5073876;28;19912;-74
2022/01/11 03:57:32;;;;;;;;;;;-0.50;99.90;;;;;;5080129;28;20003;-74
2022/01/11 03:59:59;;;;;;;;;;;-0.50;99.90;;;;;;5074102;28;20356;-74
2022/01/11 04:02:25;;;;;;;;;;;-0.50;99.90;;;;;;5074347;28;19959;-74
2022/01/11 04:04:54;;;;;;;;;;;-0.50;99.90;;;;;;5073638;28;19920;-73
2022/01/11 04:07:20;;;;;;;;;;;-0.60;99.90;;;;;;5074366;28;19962;-74
2022/01/11 04:09:46;;;;;;;;;;;-0.70;99.90;;;;;;5056231;28;19939;-74
2022/01/11 04:12:12;;;;;;;;;;;-0.80;99.90;;;;;;5073864;28;19909;-74
2022/01/11 04:14:38;;;;;;;;;;;-0.70;99.90;;;;;;5073505;28;20262;-74
2022/01/11 04:17:04;;;;;;;;;;;-0.70;99.90;;;;;;5074013;28;19919;-73
2022/01/11 04:19:29;;;;;;;;;;;-0.70;99.90;;;;;;5074165;28;19908;-73
2022/01/11 04:21:55;;;;;;;;;;;-0.80;99.90;;;;;;5073874;28;20369;-72
2022/01/11 04:24:20;;;;;;;;;;;-0.70;99.90;;;;;;5073560;28;19916;-74
2022/01/11 04:26:46;;;;;;;;;;;-0.60;99.90;;;;;;5079843;28;20365;-74
2022/01/11 04:29:11;;;;;;;;;;;-0.50;99.90;;;;;;5073644;28;19909;-73
2022/01/11 04:31:37;;;;;;;;;;;-0.40;99.90;;;;;;5073771;28;19908;-74
2022/01/11 04:34:02;;;;;;;;;;;-0.40;99.90;;;;;;5073328;28;20182;-74
2022/01/11 04:36:28;;;;;;;;;;;-0.40;99.90;;;;;;5073419;28;19913;-73
2022/01/11 04:38:54;;;;;;;;;;;-0.40;99.90;;;;;;5073655;28;19956;-73
2022/01/11 04:41:19;;;;;;;;;;;-0.60;99.90;;;;;;5073250;28;19912;-74
2022/01/11 04:43:45;;;;;;;;;;;-0.70;99.90;;;;;;5073235;28;20134;-74
2022/01/11 04:46:10;;;;;;;;;;;-0.60;99.90;;;;;;5055429;28;19940;-74
2022/01/11 04:48:36;;;;;;;;;;;-0.60;99.90;;;;;;5073482;28;19908;-74
2022/01/11 04:51:02;;;;;;;;;;;-0.70;99.90;;;;;;5073462;28;20311;-74
2022/01/11 04:53:28;;;;;;;;;;;-0.60;99.90;;;;;;5073020;28;19908;-74
2022/01/11 04:55:54;;;;;;;;;;;-0.70;99.90;;;;;;5073397;28;19942;-74
2022/01/11 04:58:19;;;;;;;;;;;-0.50;99.90;;;;;;5078607;28;19956;-74
2022/01/11 05:00:45;;;;;;;;;;;-0.30;99.90;;;;;;5073242;28;19948;-74
2022/01/11 05:03:11;;;;;;;;;;;-0.30;99.90;;;;;;5054765;28;19916;-74
2022/01/11 05:05:36;;;;;;;;;;;-0.20;99.90;;;;;;5073006;28;20401;-73
2022/01/11 05:08:04;;;;;;;;;;;-0.20;99.90;;;;;;5073007;28;19908;-74
2022/01/11 05:10:30;;;;;;;;;;;-0.10;99.90;;;;;;5072728;28;19909;-73
2022/01/11 05:12:56;;;;;;;;;;;-0.10;99.90;;;;;;5072630;28;19915;-73
2022/01/11 05:15:25;;;;;;;;;;;-0.10;99.90;;;;;;5072490;28;20284;-74
2022/01/11 05:17:51;;;;;;;;;;;-0.20;99.90;;;;;;5072625;28;19915;-72
2022/01/11 05:20:17;;;;;;;;;;;-0.30;99.90;;;;;;5055015;28;20349;-73
2022/01/11 05:22:44;;;;;;;;;;;-0.30;99.90;;;;;;5072275;28;19913;-73
2022/01/11 05:25:11;;;;;;;;;;;-0.40;99.90;;;;;;5071788;28;19992;-74
2022/01/11 05:27:37;;;;;;;;;;;-0.30;99.90;;;;;;5078650;28;19909;-74
2022/01/11 05:30:03;;;;;;;;;;;-0.40;99.90;;;;;;5072716;28;20418;-73
2022/01/11 05:32:29;;;;;;;;;;;-0.50;99.90;;;;;;5072514;28;19916;-73
2022/01/11 05:34:54;;;;;;;;;;;-0.30;99.90;;;;;;5072008;28;19912;-74
2022/01/11 05:37:20;;;;;;;;;;;-0.30;99.90;;;;;;5072363;28;19963;-74
2022/01/11 05:39:45;;;;;;;;;;;-0.20;99.90;;;;;;5072069;28;19916;-74
2022/01/11 05:42:11;;;;;;;;;;;-0.20;99.90;;;;;;5054331;28;19952;-73
2022/01/11 05:44:37;;;;;;;;;;;-0.10;99.90;;;;;;5071844;28;20332;-74
2022/01/11 05:47:03;;;;;;;;;;;0.00;99.90;;;;;;5075720;28;19908;-74
2022/01/11 05:49:28;;;;;;;;;;;-0.10;99.90;;;;;;5076277;28;19915;-74
2022/01/11 05:51:54;;;;;;;;;;;-0.10;99.90;;;;;;5072077;28;19913;-74
2022/01/11 05:54:19;;;;;;;;;;;-0.10;99.90;;;;;;5053236;28;19920;-73
2022/01/11 05:56:45;;;;;;;;;;;-0.10;99.90;;;;;;5071981;28;20312;-74
2022/01/11 05:59:11;;;;;;;;;;;-0.20;99.90;;;;;;5054032;28;20187;-74
2022/01/11 06:01:36;;;;;;;;;;;-0.20;99.90;;;;;;5071975;28;19908;-74
2022/01/11 06:04:02;;;;;;;;;;;-0.10;99.90;;;;;;5071518;28;19944;-74
2022/01/11 06:06:27;;;;;;;;;;;-0.10;99.90;;;;;;5072707;28;19908;-73
2022/01/11 06:08:53;;;;;;;;;;;-0.10;99.90;;;;;;5072129;28;20369;-74
2022/01/11 06:11:18;;;;;;;;;;;0.00;99.90;;;;;;5072799;28;19908;-74
2022/01/11 06:13:44;;;;;;;;;;;-0.10;99.90;;;;;;5071773;28;19919;-73
2022/01/11 06:16:10;;;;;;;;;;;-0.10;99.90;;;;;;5071710;28;19978;-74
2022/01/11 06:18:35;;;;;;;;;;;-0.20;99.90;;;;;;5079797;28;20427;-72
2022/01/11 06:21:01;;;;;;;;;;;-0.30;99.90;;;;;;5092079;28;20019;-74
2022/01/11 06:23:27;;;;;;;;;;;-0.30;99.90;;;;;;5091556;28;19908;-74
2022/01/11 06:25:52;;;;;;;;;;;-0.30;99.90;;;;;;5092040;28;19931;-73
2022/01/11 06:28:18;;;;;;;;;;;-0.30;99.90;;;;;;5092053;28;20003;-74
2022/01/11 06:30:43;;;;;;;;;;;-0.30;99.90;;;;;;5092079;28;19908;-74
2022/01/11 06:33:09;;;;;;;;;;;-0.30;99.90;;;;;;5091794;28;19993;-74
2022/01/11 06:35:34;;;;;;;;;;;-0.20;99.90;;;;;;5090693;28;19919;-73
2022/01/11 06:38:00;;;;;;;;;;;-0.20;99.90;;;;;;5091739;28;19916;-74
2022/01/11 06:40:25;;;;;;;;;;;-0.10;99.90;;;;;;5091788;28;20368;-74
2022/01/11 06:42:52;;;;;;;;;;;0.00;99.90;;;;;;5091761;28;20003;-73
2022/01/11 06:45:18;;;;;;;;;;;0.00;99.90;;;;;;5091293;28;19908;-74
2022/01/11 06:47:44;;;;;;;;;;;-0.10;99.90;;;;;;5090225;28;20330;-74
2022/01/11 06:50:09;;;;;;;;;;;-0.20;99.90;;;;;;5071047;28;20394;-74
2022/01/11 06:52:35;;;;;;;;;;;-0.20;99.90;;;;;;5053158;28;19954;-73
2022/01/11 06:55:02;;;;;;;;;;;-0.20;99.90;;;;;;5070671;28;20341;-73
2022/01/11 06:57:28;;;;;;;;;;;-0.30;99.90;;;;;;5071216;28;19982;-74
2022/01/11 06:59:54;;;;;;;;;;;-0.30;99.90;;;;;;5071185;28;19912;-74
2022/01/11 07:02:19;;;;;;;;;;;-0.30;99.90;;;;;;5071578;28;19912;-73
2022/01/11 07:04:45;;;;;;;;;;;-0.30;99.90;;;;;;5070579;28;20277;-73
2022/01/11 07:07:10;;;;;;;;;;;-0.30;99.90;;;;;;5071141;28;20246;-74
2022/01/11 07:09:36;;;;;;;;;;;-0.20;99.90;;;;;;5071237;28;19913;-74
2022/01/11 07:12:02;;;;;;;;;;;-0.10;99.90;;;;;;5071037;28;19920;-74
2022/01/11 07:14:27;;;;;;;;;;;0.00;99.90;;;;;;5070568;28;19995;-74
2022/01/11 07:16:53;;;;;;;;;;;0.00;99.90;;;;;;5073178;28;19934;-74
2022/01/11 07:19:19;;;;;;;;;;;-0.10;99.90;;;;;;5076753;28;19909;-74
2022/01/11 07:21:45;;;;;;;;;;;0.00;99.90;;;;;;5070802;28;20292;-73
2022/01/11 07:24:11;;;;;;;;;;;0.00;99.90;;;;;;5070621;28;19912;-74
2022/01/11 07:26:37;;;;;;;;;;;-0.10;99.90;;;;;;5071066;28;19995;-74
2022/01/11 07:29:03;;;;;;;;;;;-0.20;99.90;;;;;;5070911;28;19947;-74
2022/01/11 07:31:29;;;;;;;;;;;-0.20;99.90;;;;;;5071063;28;20361;-74
2022/01/11 07:33:55;;;;;;;;;;;-0.20;99.90;;;;;;5070616;28;19999;-74
2022/01/11 07:36:20;;;;;;;;;;;-0.10;99.90;;;;;;5070692;28;20442;-74
2022/01/11 07:38:46;;;;;;;;;;;-0.10;99.90;;;;;;5070981;28;19909;-71
2022/01/11 07:41:11;;;;;;;;;;;-0.10;99.90;;;;;;5052716;28;20284;-74
2022/01/11 07:43:36;;;;;;;;;;;0.00;99.90;;;;;;5070874;28;19962;-74
2022/01/11 07:46:02;;;;;;;;;;;0.10;99.90;;;;;;5078692;28;19932;-73
2022/01/11 07:48:27;;;;;;;;;;;0.10;99.90;;;;;;5078786;28;19908;-74
2022/01/11 07:50:53;;;;;;;;;;;0.20;99.90;;;;;;5073457;28;19909;-74
2022/01/11 07:53:19;;;;;;;;;;;0.30;99.90;;;;;;5073599;28;19908;-74
2022/01/11 07:55:44;;;;;;;;;;;0.20;99.90;;;;;;5074126;28;19916;-72
2022/01/11 07:58:09;;;;;;;;;;;0.30;99.90;;;;;;5073470;28;19908;-73
2022/01/11 08:00:35;;;;;;;;;;;0.30;99.90;;;;;;5074505;28;19908;-73
2022/01/11 08:03:00;;;;;;;;;;;0.30;99.90;;;;;;5078367;28;19916;-73
2022/01/11 08:05:26;;;;;;;;;;;0.30;99.90;;;;;;5086084;28;19958;-73
2022/01/11 08:07:52;;;;;;;;;;;0.30;99.90;;;;;;5055922;28;19958;-73
2022/01/11 08:10:18;;;;;;;;;;;0.30;99.90;;;;;;5074124;28;19909;-73
2022/01/11 08:12:44;;;;;;;;;;;0.40;99.90;;;;;;5068530;28;19908;-73
2022/01/11 08:15:10;;;;;;;;;;;0.50;99.90;;;;;;5086135;28;19966;-73
2022/01/11 08:17:35;;;;;;;;;;;0.50;99.90;;;;;;5080171;28;19909;-73
2022/01/11 08:20:02;;;;;;;;;;;0.60;99.90;;;;;;5074592;28;19909;-73
2022/01/11 08:22:27;;;;;;;;;;;0.70;99.90;;;;;;5074432;28;20281;-73
2022/01/11 08:24:53;;;;;;;;;;;0.80;99.90;;;;;;5073622;28;19908;-74
2022/01/11 08:27:19;;;;;;;;;;;0.90;99.90;;;;;;5069415;28;20070;-73
2022/01/11 08:29:45;;;;;;;;;;;0.90;99.90;;;;;;5069838;28;19909;-71
2022/01/11 08:32:11;;;;;;;;;;;1.00;99.90;;;;;;5088742;28;19951;-72
2022/01/11 08:34:37;;;;;;;;;;;1.10;99.90;;;;;;5105634;28;19919;-74
2022/01/11 08:37:04;;;;;;;;;;;1.10;99.90;;;;;;5075253;28;19913;-73
2022/01/11 08:39:30;;;;;;;;;;;1.10;99.90;;;;;;5073552;28;19908;-74
2022/01/11 08:41:56;;;;;;;;;;;1.20;99.90;;;;;;5074957;28;19963;-74
2022/01/11 08:44:23;;;;;;;;;;;1.10;99.90;;;;;;5092962;28;19943;-71
2022/01/11 08:46:49;;;;;;;;;;;1.10;99.90;;;;;;5075477;28;19916;-73
2022/01/11 08:49:15;;;;;;;;;;;1.20;99.90;;;;;;5081760;28;19909;-74
2022/01/11 08:51:41;;;;;;;;;;;1.20;99.90;;;;;;5087253;28;19912;-72
2022/01/11 08:54:07;;;;;;;;;;;1.20;99.90;;;;;;5073760;28;19948;-74
2022/01/11 08:56:32;;;;;;;;;;;1.40;99.90;;;;;;5091418;28;20341;-74
2022/01/11 08:58:59;;;;;;;;;;;1.40;99.90;;;;;;5092347;28;19948;-73
2022/01/11 09:01:28;;;;;;;;;;;1.40;99.90;;;;;;5070257;28;20046;-73
2022/01/11 09:03:54;;;;;;;;;;;1.40;99.90;;;;;;5084397;28;19959;-73
2022/01/11 09:06:20;;;;;;;;;;;1.40;99.90;;;;;;5093311;28;19919;-73
2022/01/11 09:08:45;;;;;;;;;;;1.30;99.90;;;;;;5075859;28;19908;-73
2022/01/11 09:11:11;;;;;;;;;;;1.50;99.90;;;;;;5091492;28;20009;-73
2022/01/11 09:13:37;;;;;;;;;;;1.50;99.90;;;;;;5092990;28;20065;-73
2022/01/11 09:16:03;;;;;;;;;;;1.60;99.90;;;;;;5069055;28;19916;-73
2022/01/11 09:18:28;;;;;;;;;;;1.50;99.90;;;;;;5080543;28;19915;-73
2022/01/11 09:20:54;;;;;;;;;;;1.70;99.90;;;;;;5072782;28;19912;-73
2022/01/11 09:23:20;;;;;;;;;;;1.70;99.90;;;;;;5061791;28;20336;-74
2022/01/11 09:25:45;;;;;;;;;;;1.80;99.90;;;;;;5054702;28;19958;-73
2022/01/11 09:28:11;;;;;;;;;;;1.80;99.90;;;;;;5071732;28;20283;-72
2022/01/11 09:30:37;;;;;;;;;;;1.80;99.90;;;;;;5086958;28;19908;-73
2022/01/11 09:33:03;;;;;;;;;;;1.90;99.90;;;;;;5090675;28;19937;-73
2022/01/11 09:35:28;;;;;;;;;;;1.90;99.90;;;;;;5092668;28;19908;-73
2022/01/11 09:37:54;;;;;;;;;;;2.00;99.90;;;;;;5082949;28;19958;-73
2022/01/11 09:40:19;;;;;;;;;;;2.00;99.90;;;;;;5080208;28;19919;-73
2022/01/11 09:42:45;;;;;;;;;;;2.00;99.90;;;;;;5057134;28;20010;-73
2022/01/11 09:45:11;;;;;;;;;;;2.10;99.90;;;;;;5080078;28;19908;-73
2022/01/11 09:47:38;;;;;;;;;;;2.20;99.90;;;;;;5073913;28;19955;-73
2022/01/11 09:50:05;;;;;;;;;;;2.20;99.90;;;;;;5054140;28;19978;-73
2022/01/11 09:52:31;;;;;;;;;;;2.30;99.90;;;;;;5074789;28;20388;-73
2022/01/11 09:54:56;;;;;;;;;;;2.40;99.90;;;;;;5072224;28;19908;-73
2022/01/11 09:57:22;;;;;;;;;;;2.50;99.90;;;;;;5054292;28;19920;-73
2022/01/11 09:59:48;;;;;;;;;;;2.60;99.90;;;;;;5072103;28;19915;-72
2022/01/11 10:02:13;;;;;;;;;;;2.60;99.90;;;;;;5073828;28;20278;-73
2022/01/11 10:04:39;;;;;;;;;;;2.70;99.90;;;;;;5071164;28;19908;-73
2022/01/11 10:07:06;;;;;;;;;;;2.90;99.90;;;;;;5072407;28;19912;-74
2022/01/11 10:09:40;;;;;;;;;;;3.00;99.90;;;;;;5071657;28;19988;-73
2022/01/11 10:12:08;;;;;;;;;;;3.00;99.90;;;;;;5071964;28;19912;-74
2022/01/11 10:14:37;;;;;;;;;;;3.00;99.90;;;;;;5070874;28;19924;-73
2022/01/11 10:17:15;;;;;;;;;;;3.00;99.90;;;;;;5083460;28;19916;-73
2022/01/11 10:19:42;;;;;;;;;;;3.00;99.90;;;;;;5074132;28;19912;-73
2022/01/11 10:22:12;;;;;;;;;;;3.10;99.90;;;;;;5072499;28;19909;-74
2022/01/11 10:24:42;;;;;;;;;;;3.20;99.90;;;;;;5056851;28;19908;-72
2022/01/11 10:27:28;;;;;;;;;;;3.30;99.90;;;;;;5074264;28;19909;-75
2022/01/11 10:29:54;;;;;;;;;;;3.30;99.90;;;;;;5075433;28;19909;-74
2022/01/11 10:32:25;;;;;;;;;;;3.40;99.90;;;;;;5082546;28;19912;-74
2022/01/11 10:34:52;;;;;;;;;;;3.60;99.90;;;;;;5068112;28;19970;-74
2022/01/11 10:37:31;;;;;;;;;;;3.70;99.90;;;;;;5080676;28;19934;-73
2022/01/11 10:40:03;;;;;;;;;;;3.70;99.90;;;;;;5091147;28;19908;-73
2022/01/11 10:42:33;;;;;;;;;;;3.60;99.90;;;;;;5091545;28;19961;-73
2022/01/11 10:45:33;;;;;;;;;;;3.60;99.90;;;;;;5090653;28;20254;-73
2022/01/11 10:48:00;;;;;;;;;;;3.70;99.90;;;;;;5025699;28;19917;-73
2022/01/11 10:50:28;;;;;;;;;;;4.10;99.90;;;;;;5070373;28;19908;-74
2022/01/11 10:52:58;;;;;;;;;;;4.30;99.90;;;;;;5070820;28;19916;-73
2022/01/11 10:55:25;;;;;;;;;;;4.30;99.90;;;;;;5070104;28;19930;-73
2022/01/11 10:57:52;;;;;;;;;;;4.40;99.90;;;;;;5083486;28;19915;-72
2022/01/11 11:00:31;;;;;;;;;;;4.40;99.90;;;;;;5083212;28;19916;-73
2022/01/11 11:02:57;;;;;;;;;;;4.40;99.90;;;;;;5075497;28;19912;-74
2022/01/11 11:05:24;;;;;;;;;;;4.70;99.90;;;;;;5073616;28;20118;-73
2022/01/11 11:08:09;;;;;;;;;;;5.10;99.90;;;;;;5075373;28;20361;-73
2022/01/11 11:10:49;;;;;;;;;;;5.60;99.90;;;;;;5090430;28;19927;-73
2022/01/11 11:13:34;;;;;;;;;;;6.20;99.90;;;;;;5090226;28;19916;-73
2022/01/11 11:16:08;;;;;;;;;;;5.40;99.90;;;;;;5081203;28;20007;-73
2022/01/11 11:18:38;;;;;;;;;;;5.10;99.90;;;;;;5084509;28;19916;-73
2022/01/11 11:21:27;;;;;;;;;;;4.50;99.90;;;;;;5082283;28;20121;-74
2022/01/11 11:23:54;;;;;;;;;;;3.90;99.90;;;;;;5068663;28;19909;-73
2022/01/11 11:26:21;;;;;;;;;;;3.40;99.90;;;;;;5074170;28;19966;-73
2022/01/11 11:28:47;;;;;;;;;;;3.30;99.90;;;;;;5088218;28;19908;-74
2022/01/11 11:31:13;;;;;;;;;;;3.40;99.90;;;;;;5094989;28;19915;-73
2022/01/11 11:33:39;;;;;;;;;;;3.50;99.90;;;;;;5094579;28;19908;-72
2022/01/11 11:36:06;;;;;;;;;;;3.50;99.90;;;;;;5090922;28;20348;-73
2022/01/11 11:38:33;;;;;;;;;;;3.40;99.90;;;;;;5095015;28;20323;-73
2022/01/11 11:40:59;;;;;;;;;;;3.40;99.90;;;;;;5094432;28;19908;-73
2022/01/11 11:43:25;;;;;;;;;;;3.50;99.90;;;;;;5094501;28;19963;-73
2022/01/11 11:45:51;;;;;;;;;;;3.70;99.90;;;;;;5074870;28;19908;-73
2022/01/11 11:48:18;;;;;;;;;;;3.90;99.90;;;;;;5064617;28;19931;-73
2022/01/11 11:50:49;;;;;;;;;;;4.10;99.90;;;;;;5076247;28;19970;-73
2022/01/11 11:53:19;;;;;;;;;;;4.10;99.90;;;;;;5072681;28;19916;-73
2022/01/11 11:55:45;;;;;;;;;;;3.90;99.90;;;;;;5073716;28;20023;-73
2022/01/11 11:58:18;;;;;;;;;;;4.00;99.90;;;;;;5074120;28;19962;-71
2022/01/11 12:00:45;;;;;;;;;;;4.10;99.90;;;;;;5074487;28;20003;-73
2022/01/11 12:03:16;;;;;;;;;;;3.90;99.90;;;;;;5080934;28;20007;-72
2022/01/11 12:05:45;;;;;;;;;;;4.10;99.90;;;;;;5078178;28;20002;-73
2022/01/11 12:11:33;;;;;;;;;;;4.10;99.90;;;;;;5065015;28;19912;-74
2022/01/11 12:13:58;;;;;;;;;;;4.10;99.90;;;;;;5079849;28;19969;-74
2022/01/11 12:16:24;;;;;;;;;;;3.90;99.90;;;;;;5088342;28;20371;-73
2022/01/11 12:18:50;;;;;;;;;;;3.90;99.90;;;;;;5087698;28;19912;-73
2022/01/11 12:21:16;;;;;;;;;;;3.80;99.90;;;;;;5084595;28;19947;-73
2022/01/11 12:23:43;;;;;;;;;;;3.70;99.90;;;;;;5075384;28;19912;-72
2022/01/11 12:26:15;;;;;;;;;;;3.80;99.90;;;;;;5077818;28;20358;-73
2022/01/11 12:28:42;;;;;;;;;;;3.80;99.90;;;;;;5082251;28;19982;-72
2022/01/11 12:31:26;;;;;;;;;;;3.80;99.90;;;;;;5098141;28;19908;-72
2022/01/11 12:33:52;;;;;;;;;;;3.90;99.90;;;;;;5086428;28;19915;-73
2022/01/11 12:36:17;;;;;;;;;;;4.00;99.90;;;;;;5072328;28;20002;-73
2022/01/11 12:39:03;;;;;;;;;;;4.00;99.90;;;;;;5078864;28;20361;-71
2022/01/11 12:41:37;;;;;;;;;;;3.80;99.90;;;;;;5075359;28;19908;-73
2022/01/11 12:44:21;;;;;;;;;;;3.70;99.90;;;;;;5087960;28;19995;-73
2022/01/11 12:46:50;;;;;;;;;;;3.50;99.90;;;;;;5097333;28;19908;-73
2022/01/11 12:49:15;;;;;;;;;;;3.30;99.90;;;;;;5083214;28;19950;-72
2022/01/11 12:51:49;;;;;;;;;;;3.10;99.90;;;;;;5084256;28;19908;-73
2022/01/11 12:54:18;;;;;;;;;;;3.10;99.90;;;;;;5096657;28;20432;-73
2022/01/11 12:56:46;;;;;;;;;;;3.10;99.90;;;;;;5096361;28;19934;-73
2022/01/11 12:59:12;;;;;;;;;;;3.10;99.90;;;;;;5077688;28;19908;-73
2022/01/11 13:01:37;;;;;;;;;;;3.10;99.90;;;;;;5081592;28;20413;-73
2022/01/11 13:04:03;;;;;;;;;;;2.90;99.90;;;;;;5077567;28;19915;-73
2022/01/11 13:06:36;;;;;;;;;;;2.90;99.90;;;;;;5077818;28;19916;-73
2022/01/11 13:09:10;;;;;;;;;;;2.90;99.90;;;;;;5078320;28;20175;-73
2022/01/11 13:11:36;;;;;;;;;;;2.70;99.90;;;;;;5076222;28;20376;-74
2022/01/11 13:14:17;;;;;;;;;;;2.80;99.90;;;;;;5076715;28;19912;-74
2022/01/11 13:16:44;;;;;;;;;;;3.20;99.90;;;;;;5084295;28;19920;-74
2022/01/11 13:19:10;;;;;;;;;;;3.60;99.90;;;;;;5073837;28;19923;-74
2022/01/11 13:21:36;;;;;;;;;;;3.90;99.90;;;;;;5075826;28;19931;-74
2022/01/11 13:24:12;;;;;;;;;;;3.70;99.90;;;;;;5082797;28;19908;-73
2022/01/11 13:26:38;;;;;;;;;;;3.70;99.90;;;;;;5095069;28;20314;-74
2022/01/11 13:29:03;;;;;;;;;;;3.90;99.90;;;;;;5095475;28;19908;-74
2022/01/11 13:31:35;;;;;;;;;;;3.90;99.90;;;;;;5092411;28;20337;-74
2022/01/11 13:34:03;;;;;;;;;;;3.90;99.90;;;;;;5088355;28;20365;-74
2022/01/11 13:36:30;;;;;;;;;;;3.80;99.90;;;;;;5085904;28;19911;-73
2022/01/11 13:38:57;;;;;;;;;;;3.80;99.90;;;;;;5076367;28;19958;-74
2022/01/11 13:41:30;;;;;;;;;;;3.70;99.90;;;;;;5082137;28;20164;-73
2022/01/11 13:43:57;;;;;;;;;;;3.60;99.90;;;;;;5082996;28;19908;-74
2022/01/11 13:46:24;;;;;;;;;;;3.50;99.90;;;;;;5084994;28;19908;-73
2022/01/11 13:48:50;;;;;;;;;;;3.40;99.90;;;;;;5067279;28;19911;-73
2022/01/11 13:51:22;;;;;;;;;;;3.40;99.90;;;;;;5083723;28;19908;-74
2022/01/11 13:53:50;;;;;;;;;;;3.20;99.90;;;;;;5090026;28;19909;-73
2022/01/11 13:56:16;;;;;;;;;;;3.00;99.90;;;;;;5091534;28;20094;-74
2022/01/11 13:58:49;;;;;;;;;;;3.10;99.90;;;;;;5092651;28;19950;-74
2022/01/11 14:01:16;;;;;;;;;;;3.30;99.90;;;;;;5079657;28;19913;-74
2022/01/11 14:03:42;;;;;;;;;;;3.40;99.90;;;;;;5054269;28;19908;-74
2022/01/11 14:06:13;;;;;;;;;;;3.40;99.90;;;;;;5054259;28;19916;-73
2022/01/11 14:08:43;;;;;;;;;;;3.40;99.90;;;;;;5076027;28;19963;-74
2022/01/11 14:11:11;;;;;;;;;;;3.30;99.90;;;;;;5076328;28;20361;-74
2022/01/11 14:13:37;;;;;;;;;;;3.20;99.90;;;;;;5091716;28;20004;-74
2022/01/11 14:16:09;;;;;;;;;;;3.20;99.90;;;;;;5058543;28;20003;-74
2022/01/11 14:18:35;;;;;;;;;;;3.10;99.90;;;;;;5077565;28;19918;-74
2022/01/11 14:21:07;;;;;;;;;;;3.10;99.90;;;;;;5092710;28;19916;-73
2022/01/11 14:23:34;;;;;;;;;;;3.00;99.90;;;;;;5084158;28;19920;-73
2022/01/11 14:26:00;;;;;;;;;;;2.90;99.90;;;;;;5072551;28;20360;-72